Time;durP1;ratioP1;P1;durP2;ratioP2;P2;SDS_P1;SDS_P2;PMS_P1;PMS_P2;Temp;Humidity;BMP_temperature;BMP_pressure;BME280_temperature;BME280_humidity;BME280_pressure;Samples;Min_cycle;Max_cycle;Signal;HPM_P1;HPM_P2
2022/10/14 00:01:33;;;;;;;13.60;9.13;;;;;;;;;;4998854;28;20211;-80
2022/10/14 00:03:59;;;;;;;13.87;9.63;;;;;;;;;;5015234;28;20174;-80
2022/10/14 00:06:29;;;;;;;12.87;9.90;;;;;;;;;;5015437;28;20174;-80
2022/10/14 00:08:56;;;;;;;13.13;9.67;;;;;;;;;;5015533;28;20250;-80
2022/10/14 00:11:24;;;;;;;14.87;9.60;;;;;;;;;;4998780;28;20207;-80
2022/10/14 00:13:50;;;;;;;13.43;9.60;;;;;;;;;;5015076;28;20747;-80
2022/10/14 00:16:19;;;;;;;13.67;9.97;;;;;;;;;;4999072;28;20574;-80
2022/10/14 00:18:46;;;;;;;15.20;10.03;;;;;;;;;;5015204;28;20182;-80
2022/10/14 00:21:12;;;;;;;13.70;10.40;;;;;;;;;;5014895;28;20222;-80
2022/10/14 00:23:38;;;;;;;14.47;10.63;;;;;;;;;;5014892;28;20270;-80
2022/10/14 00:26:05;;;;;;;14.63;10.47;;;;;;;;;;5014911;28;20179;-80
2022/10/14 00:28:31;;;;;;;15.00;11.17;;;;;;;;;;5014822;28;20175;-80
2022/10/14 00:31:01;;;;;;;16.87;11.27;;;;;;;;;;4998282;28;20203;-80
2022/10/14 00:33:28;;;;;;;13.47;10.37;;;;;;;;;;5014665;28;20211;-80
2022/10/14 00:35:58;;;;;;;13.10;10.50;;;;;;;;;;4998827;28;20246;-80
2022/10/14 00:38:24;;;;;;;15.00;10.53;;;;;;;;;;4998408;28;20596;-80
2022/10/14 00:40:50;;;;;;;14.00;10.67;;;;;;;;;;5014278;28;20281;-80
2022/10/14 00:43:16;;;;;;;14.17;11.03;;;;;;;;;;4998358;28;20211;-80
2022/10/14 00:45:42;;;;;;;13.50;11.10;;;;;;;;;;4998681;28;20228;-80
2022/10/14 00:48:08;;;;;;;14.07;9.77;;;;;;;;;;5014825;28;20329;-80
2022/10/14 00:50:35;;;;;;;12.93;10.10;;;;;;;;;;4998260;28;20210;-80
2022/10/14 00:53:02;;;;;;;12.87;9.70;;;;;;;;;;5014438;28;20203;-80
2022/10/14 00:55:28;;;;;;;12.57;9.27;;;;;;;;;;4998242;28;20562;-80
2022/10/14 00:57:55;;;;;;;12.93;9.40;;;;;;;;;;5015667;28;20261;-80
2022/10/14 01:00:21;;;;;;;12.60;8.93;;;;;;;;;;5015911;28;20206;-80
2022/10/14 01:03:24;;;;;;;10.83;8.70;;;;;;;;;;4998229;28;20183;-80
2022/10/14 01:06:00;;;;;;;12.47;9.00;;;;;;;;;;5015118;28;20178;-80
2022/10/14 01:08:39;;;;;;;13.13;8.77;;;;;;;;;;5015148;28;20539;-80
2022/10/14 07:18:55;;;;;;;10.43;7.73;;;;;;;;;;5712584;23;20313;-77
2022/10/14 07:21:21;;;;;;;9.30;7.47;;;;;;;;;;5014154;28;20727;-77
2022/10/14 07:23:47;;;;;;;10.77;7.70;;;;;;;;;;5030348;28;20182;-78
2022/10/14 07:26:13;;;;;;;8.77;7.10;;;;;;;;;;5030883;28;20192;-77
2022/10/14 07:28:39;;;;;;;8.40;7.40;;;;;;;;;;5030817;28;20577;-80
2022/10/14 07:31:09;;;;;;;9.57;7.47;;;;;;;;;;5030732;28;20221;-78
2022/10/14 07:33:36;;;;;;;9.30;6.63;;;;;;;;;;5032035;28;20226;-78
2022/10/14 07:36:03;;;;;;;8.43;6.60;;;;;;;;;;5014264;28;20179;-78
2022/10/14 07:38:30;;;;;;;8.80;6.83;;;;;;;;;;5030539;28;20206;-77
2022/10/14 07:41:16;;;;;;;7.97;6.43;;;;;;;;;;5032242;28;20293;-77
2022/10/14 07:43:47;;;;;;;7.03;6.33;;;;;;;;;;5035840;28;20170;-77
2022/10/14 07:46:13;;;;;;;9.40;6.17;;;;;;;;;;5034456;28;20552;-77
2022/10/14 07:48:40;;;;;;;7.27;5.77;;;;;;;;;;5017884;28;20273;-78
2022/10/14 07:51:09;;;;;;;8.10;6.10;;;;;;;;;;5034343;28;20651;-78
2022/10/14 07:53:36;;;;;;;8.70;5.93;;;;;;;;;;5034289;28;20213;-78
2022/10/14 07:56:02;;;;;;;7.93;6.40;;;;;;;;;;5034192;28;20181;-78
2022/10/14 07:58:29;;;;;;;6.90;5.83;;;;;;;;;;5034332;28;20548;-76
2022/10/14 08:00:56;;;;;;;6.00;5.40;;;;;;;;;;5017726;28;20182;-78
2022/10/14 08:03:22;;;;;;;5.70;5.07;;;;;;;;;;5033963;28;20214;-77
2022/10/14 08:05:49;;;;;;;6.70;5.57;;;;;;;;;;5034143;28;20271;-78
2022/10/14 08:08:15;;;;;;;7.07;5.90;;;;;;;;;;5018046;28;20198;-78
2022/10/14 08:10:41;;;;;;;7.83;5.77;;;;;;;;;;5033989;28;20194;-78
2022/10/14 08:13:07;;;;;;;6.47;5.43;;;;;;;;;;5033874;28;20206;-78
2022/10/14 08:15:39;;;;;;;8.00;5.57;;;;;;;;;;5033932;28;20559;-77
2022/10/14 08:18:05;;;;;;;6.77;5.70;;;;;;;;;;5033587;28;20182;-77
2022/10/14 08:20:31;;;;;;;5.97;5.37;;;;;;;;;;5017851;28;20703;-77
2022/10/14 08:22:58;;;;;;;6.93;6.03;;;;;;;;;;5017362;28;20187;-77
2022/10/14 08:25:24;;;;;;;7.67;5.57;;;;;;;;;;5017496;28;20178;-78
2022/10/14 08:27:50;;;;;;;7.67;6.03;;;;;;;;;;5017454;28;20214;-78
2022/10/14 08:30:16;;;;;;;6.93;5.73;;;;;;;;;;5017203;28;20263;-78
2022/10/14 08:32:42;;;;;;;8.10;5.50;;;;;;;;;;5033360;28;20270;-78
2022/10/14 08:35:09;;;;;;;5.93;5.33;;;;;;;;;;5017164;28;20265;-78
2022/10/14 08:37:35;;;;;;;9.23;5.97;;;;;;;;;;5033475;28;20619;-78
2022/10/14 08:40:01;;;;;;;6.77;5.40;;;;;;;;;;5017323;28;20285;-78
2022/10/14 08:42:28;;;;;;;5.77;5.13;;;;;;;;;;5017315;28;20277;-78
2022/10/14 08:45:00;;;;;;;6.27;5.00;;;;;;;;;;5033590;28;20546;-79
2022/10/14 08:47:46;;;;;;;5.80;5.20;;;;;;;;;;5033564;28;20226;-77
2022/10/14 08:50:22;;;;;;;6.23;4.67;;;;;;;;;;5017088;28;20272;-76
2022/10/14 08:52:50;;;;;;;5.43;4.93;;;;;;;;;;5032619;28;20255;-77
2022/10/14 08:55:23;;;;;;;4.43;4.03;;;;;;;;;;5033131;28;20277;-77
2022/10/14 08:57:51;;;;;;;4.73;4.10;;;;;;;;;;5033266;28;20174;-78
2022/10/14 09:00:18;;;;;;;5.17;4.03;;;;;;;;;;5033529;28;20178;-77
2022/10/14 09:02:50;;;;;;;3.97;3.53;;;;;;;;;;5033075;28;20183;-77
2022/10/14 09:05:21;;;;;;;5.83;3.43;;;;;;;;;;5033292;28;20178;-77
2022/10/14 09:07:48;;;;;;;4.57;3.70;;;;;;;;;;5016913;28;20662;-77
2022/10/14 09:10:18;;;;;;;4.10;3.30;;;;;;;;;;5033056;28;20194;-77
2022/10/14 09:12:44;;;;;;;3.77;3.47;;;;;;;;;;5032813;28;20637;-77
2022/10/14 09:15:13;;;;;;;6.07;3.87;;;;;;;;;;5015874;28;20632;-78
2022/10/14 09:17:42;;;;;;;4.20;3.80;;;;;;;;;;5023245;28;20645;-77
2022/10/14 09:20:22;;;;;;;3.47;3.17;;;;;;;;;;5019702;28;20228;-77
2022/10/14 09:22:52;;;;;;;4.33;3.90;;;;;;;;;;5011203;28;20190;-77
2022/10/14 09:25:18;;;;;;;3.90;3.50;;;;;;;;;;5014195;28;20229;-77
2022/10/14 09:27:44;;;;;;;4.20;3.47;;;;;;;;;;4998154;28;20190;-76
2022/10/14 09:30:14;;;;;;;3.77;3.37;;;;;;;;;;5011049;28;20215;-77
2022/10/14 09:32:43;;;;;;;4.53;3.70;;;;;;;;;;5026873;28;20170;-78
2022/10/14 09:35:26;;;;;;;4.50;3.50;;;;;;;;;;5032354;28;20177;-77
2022/10/14 09:37:52;;;;;;;5.20;4.00;;;;;;;;;;5017037;28;20267;-77
2022/10/14 09:40:21;;;;;;;6.50;4.37;;;;;;;;;;4996777;28;20217;-77
2022/10/14 09:43:06;;;;;;;5.13;4.00;;;;;;;;;;5012641;28;20221;-77
2022/10/14 09:45:47;;;;;;;4.67;4.20;;;;;;;;;;5013234;28;20175;-78
2022/10/14 09:48:15;;;;;;;5.13;4.17;;;;;;;;;;5013210;28;20289;-78
2022/10/14 09:50:42;;;;;;;4.77;4.07;;;;;;;;;;5012929;28;20704;-78
2022/10/14 09:53:28;;;;;;;5.83;4.60;;;;;;;;;;4996500;28;20213;-78
2022/10/14 09:55:56;;;;;;;6.53;4.73;;;;;;;;;;5012824;28;20175;-76
2022/10/14 09:58:33;;;;;;;5.40;4.80;;;;;;;;;;5013283;28;20199;-79
2022/10/14 10:01:00;;;;;;;5.63;4.80;;;;;;;;;;4996876;28;20186;-78
2022/10/14 10:03:27;;;;;;;8.23;5.17;;;;;;;;;;5012861;28;20181;-78
2022/10/14 10:06:02;;;;;;;6.13;5.03;;;;;;;;;;5012926;28;20179;-77
2022/10/14 10:08:27;;;;;;;6.00;5.10;;;;;;;;;;5012421;28;20195;-77
2022/10/14 10:11:20;;;;;;;6.50;5.50;;;;;;;;;;4996360;28;20179;-77
2022/10/14 10:13:47;;;;;;;7.17;5.67;;;;;;;;;;4997282;28;20217;-77
2022/10/14 10:16:21;;;;;;;6.53;5.30;;;;;;;;;;5013311;28;20201;-79
2022/10/14 10:18:48;;;;;;;6.50;5.53;;;;;;;;;;5015636;28;20217;-79
2022/10/14 10:21:28;;;;;;;6.70;5.23;;;;;;;;;;4997855;28;20181;-80
2022/10/14 10:23:56;;;;;;;7.10;5.73;;;;;;;;;;5014346;28;20175;-79
2022/10/14 10:26:28;;;;;;;9.37;5.97;;;;;;;;;;4997665;28;20245;-79
2022/10/14 10:28:58;;;;;;;8.53;6.00;;;;;;;;;;5014105;28;20197;-80
2022/10/14 10:31:32;;;;;;;7.97;6.10;;;;;;;;;;5014105;28;20182;-80
2022/10/14 10:34:04;;;;;;;8.20;6.00;;;;;;;;;;5013932;28;20248;-80
2022/10/14 10:36:33;;;;;;;8.13;6.00;;;;;;;;;;5014083;28;20226;-79
2022/10/14 10:39:12;;;;;;;8.47;5.90;;;;;;;;;;5014457;28;20281;-79
2022/10/14 10:41:44;;;;;;;8.07;6.13;;;;;;;;;;5015023;28;20162;-79
2022/10/14 10:44:25;;;;;;;7.50;6.20;;;;;;;;;;5013581;28;20197;-80
2022/10/14 10:47:04;;;;;;;8.67;5.93;;;;;;;;;;5014675;28;20554;-80
2022/10/14 10:49:49;;;;;;;7.43;5.63;;;;;;;;;;5013641;28;20206;-79
2022/10/14 10:52:34;;;;;;;6.53;5.23;;;;;;;;;;5013443;28;20266;-80
2022/10/14 10:55:12;;;;;;;6.77;5.20;;;;;;;;;;5030210;28;20229;-79
2022/10/14 10:57:49;;;;;;;6.63;5.50;;;;;;;;;;5013273;28;20167;-80
2022/10/14 11:00:19;;;;;;;6.00;5.23;;;;;;;;;;5013826;28;20683;-80
2022/10/14 11:02:58;;;;;;;6.47;5.43;;;;;;;;;;5013211;28;20170;-80
2022/10/14 11:05:26;;;;;;;6.83;5.40;;;;;;;;;;4997086;28;20186;-80
2022/10/14 11:13:40;;;;;;;6.67;5.50;;;;;;;;;;5014858;28;20198;-79
2022/10/14 11:16:06;;;;;;;9.37;5.80;;;;;;;;;;5017774;28;20656;-79
2022/10/14 11:18:46;;;;;;;6.63;5.17;;;;;;;;;;5019879;28;20552;-79
2022/10/14 11:21:21;;;;;;;6.77;5.53;;;;;;;;;;5019434;28;20226;-79
2022/10/14 11:24:06;;;;;;;8.67;5.60;;;;;;;;;;5019804;28;20185;-79
2022/10/14 11:26:51;;;;;;;8.23;5.30;;;;;;;;;;5020347;28;20186;-79
2022/10/14 11:29:34;;;;;;;8.50;5.77;;;;;;;;;;5020440;28;20195;-79
2022/10/14 11:32:06;;;;;;;7.47;5.97;;;;;;;;;;5020779;28;20190;-79
2022/10/14 11:34:43;;;;;;;7.97;5.97;;;;;;;;;;5020895;28;20205;-79
2022/10/14 11:37:09;;;;;;;8.53;6.07;;;;;;;;;;5004007;28;20190;-80
2022/10/14 11:39:42;;;;;;;8.30;6.00;;;;;;;;;;5020249;28;20190;-79
2022/10/14 11:42:23;;;;;;;7.17;5.30;;;;;;;;;;5021323;28;20212;-78
2022/10/14 11:44:50;;;;;;;6.53;5.37;;;;;;;;;;5039878;28;20189;-80
2022/10/14 11:47:19;;;;;;;7.07;5.70;;;;;;;;;;5039917;28;20186;-79
2022/10/14 11:49:52;;;;;;;7.03;5.40;;;;;;;;;;5041909;28;20209;-79
2022/10/14 11:52:25;;;;;;;7.97;5.53;;;;;;;;;;5042411;28;20186;-79
2022/10/14 11:55:12;;;;;;;7.20;5.20;;;;;;;;;;5039964;28;20194;-79
2022/10/14 11:57:40;;;;;;;7.00;4.87;;;;;;;;;;5032102;28;20209;-78
2022/10/14 12:00:11;;;;;;;6.43;5.30;;;;;;;;;;5040195;28;20198;-79
2022/10/14 12:02:56;;;;;;;8.50;4.80;;;;;;;;;;5038334;28;20265;-81
2022/10/14 12:05:40;;;;;;;6.30;5.20;;;;;;;;;;5038161;28;20170;-79
2022/10/14 12:08:15;;;;;;;8.60;5.00;;;;;;;;;;5022417;28;20273;-81
2022/10/14 12:10:51;;;;;;;8.10;4.83;;;;;;;;;;5038695;28;20219;-78
2022/10/14 12:13:19;;;;;;;6.83;5.17;;;;;;;;;;5039501;28;20205;-79
2022/10/14 12:15:52;;;;;;;6.37;5.07;;;;;;;;;;5038911;28;20244;-80
2022/10/14 12:18:18;;;;;;;8.43;4.80;;;;;;;;;;5021109;28;20216;-81
2022/10/14 12:20:49;;;;;;;5.70;4.40;;;;;;;;;;5038412;28;20174;-80
2022/10/14 12:23:28;;;;;;;9.57;4.80;;;;;;;;;;5037922;28;20174;-80
2022/10/14 12:26:03;;;;;;;7.43;4.90;;;;;;;;;;5038212;28;20201;-80
2022/10/14 12:28:30;;;;;;;8.23;5.07;;;;;;;;;;5034425;28;20198;-79
2022/10/14 12:31:15;;;;;;;6.90;4.60;;;;;;;;;;5035295;28;20193;-80
2022/10/14 12:33:59;;;;;;;6.23;5.20;;;;;;;;;;5035071;28;20237;-80
2022/10/14 12:36:32;;;;;;;7.90;5.10;;;;;;;;;;5035938;28;20273;-80
2022/10/14 12:39:16;;;;;;;6.57;4.83;;;;;;;;;;5034867;28;20277;-80
2022/10/14 12:42:11;;;;;;;7.03;4.90;;;;;;;;;;5035546;28;20174;-78
2022/10/14 12:44:50;;;;;;;6.57;5.30;;;;;;;;;;5026765;28;20278;-78
2022/10/14 12:47:30;;;;;;;6.77;5.03;;;;;;;;;;5035794;28;20174;-81
2022/10/14 12:49:58;;;;;;;7.37;5.83;;;;;;;;;;5035925;28;20252;-80
2022/10/14 12:52:29;;;;;;;5.20;4.70;;;;;;;;;;5035058;28;20175;-80
2022/10/14 12:54:56;;;;;;;7.50;5.20;;;;;;;;;;5035039;28;20209;-80
2022/10/14 12:57:30;;;;;;;6.60;4.83;;;;;;;;;;5035027;28;20208;-80
2022/10/14 13:00:00;;;;;;;7.73;4.80;;;;;;;;;;5034912;28;20194;-80
2022/10/14 13:02:33;;;;;;;10.00;5.60;;;;;;;;;;5034600;28;20183;-80
2022/10/14 13:05:23;;;;;;;6.67;4.97;;;;;;;;;;5035267;28;20189;-80
2022/10/14 13:08:09;;;;;;;7.10;4.83;;;;;;;;;;5029689;28;20194;-81
2022/10/14 13:10:38;;;;;;;6.73;5.33;;;;;;;;;;5034715;28;20248;-82
2022/10/14 13:13:23;;;;;;;6.23;5.03;;;;;;;;;;5034779;28;20206;-79
2022/10/14 13:15:58;;;;;;;7.83;5.63;;;;;;;;;;5034993;28;20269;-79
2022/10/14 13:18:30;;;;;;;6.87;4.93;;;;;;;;;;5034876;28;20252;-81
2022/10/14 13:20:56;;;;;;;6.57;5.07;;;;;;;;;;5034097;28;20174;-79
2022/10/14 13:23:52;;;;;;;5.97;4.83;;;;;;;;;;5034245;28;20182;-79
2022/10/14 13:26:41;;;;;;;7.63;4.97;;;;;;;;;;5025310;28;20198;-79
2022/10/14 13:29:19;;;;;;;6.67;5.23;;;;;;;;;;5026648;28;20268;-79
2022/10/14 13:31:54;;;;;;;6.17;5.27;;;;;;;;;;5034695;28;20660;-79
2022/10/14 13:34:20;;;;;;;7.20;5.10;;;;;;;;;;5034329;28;20377;-78
2022/10/14 13:37:06;;;;;;;7.10;5.40;;;;;;;;;;5034022;28;20224;-79
2022/10/14 13:39:33;;;;;;;7.67;5.40;;;;;;;;;;5022403;28;20202;-78
2022/10/14 13:41:59;;;;;;;8.57;5.40;;;;;;;;;;5017187;28;20294;-78
2022/10/14 13:44:26;;;;;;;7.07;5.97;;;;;;;;;;5034202;28;20186;-79
2022/10/14 13:46:53;;;;;;;7.73;5.20;;;;;;;;;;5033407;28;20186;-78
2022/10/14 13:49:34;;;;;;;6.00;5.30;;;;;;;;;;5034755;28;20198;-78
2022/10/14 13:52:03;;;;;;;7.83;5.17;;;;;;;;;;5038245;28;20177;-79
2022/10/14 13:54:29;;;;;;;5.93;5.10;;;;;;;;;;5036613;28;20206;-79
2022/10/14 13:57:16;;;;;;;7.47;5.90;;;;;;;;;;5018342;28;20183;-78
2022/10/14 13:59:43;;;;;;;7.43;5.47;;;;;;;;;;5027175;28;20552;-80
2022/10/14 14:02:16;;;;;;;6.13;5.13;;;;;;;;;;4998011;28;20634;-80
2022/10/14 14:04:44;;;;;;;7.50;5.07;;;;;;;;;;5016468;28;20201;-80
2022/10/14 14:07:15;;;;;;;7.70;5.70;;;;;;;;;;5014593;28;20205;-80
2022/10/14 14:09:47;;;;;;;6.57;5.63;;;;;;;;;;5014617;28;20199;-80
2022/10/14 14:12:13;;;;;;;6.90;4.77;;;;;;;;;;5014329;28;20175;-80
2022/10/14 14:14:43;;;;;;;7.27;5.23;;;;;;;;;;4998741;28;20206;-80
2022/10/14 14:17:15;;;;;;;6.80;5.27;;;;;;;;;;5013920;28;20171;-80
2022/10/14 14:19:45;;;;;;;6.03;4.80;;;;;;;;;;5025425;28;20225;-80
2022/10/14 14:22:17;;;;;;;5.20;4.57;;;;;;;;;;5033505;28;20171;-79
2022/10/14 14:24:43;;;;;;;4.90;4.30;;;;;;;;;;5033560;28;20178;-79
2022/10/14 14:27:14;;;;;;;5.30;4.80;;;;;;;;;;5050126;28;20182;-79
2022/10/14 14:29:41;;;;;;;5.80;4.90;;;;;;;;;;5033611;28;20202;-79
2022/10/14 14:32:13;;;;;;;6.83;5.17;;;;;;;;;;5037253;28;20358;-79
2022/10/14 14:34:42;;;;;;;6.03;4.93;;;;;;;;;;5014023;28;20688;-79
2022/10/14 14:37:13;;;;;;;6.23;4.80;;;;;;;;;;5013487;28;20245;-79
2022/10/14 14:39:39;;;;;;;6.30;4.77;;;;;;;;;;5014012;28;20649;-79
2022/10/14 14:42:08;;;;;;;8.13;5.17;;;;;;;;;;5013499;28;20183;-79
2022/10/14 14:44:34;;;;;;;5.50;4.90;;;;;;;;;;5013684;28;20214;-79
2022/10/14 14:47:02;;;;;;;5.30;4.30;;;;;;;;;;4997606;28;20270;-79
2022/10/14 14:49:29;;;;;;;5.40;4.30;;;;;;;;;;4997050;28;20202;-79
2022/10/14 14:51:58;;;;;;;7.17;4.70;;;;;;;;;;5030522;28;20197;-79
2022/10/14 14:54:24;;;;;;;6.30;4.30;;;;;;;;;;5016101;28;20194;-79
2022/10/14 14:57:10;;;;;;;6.63;4.33;;;;;;;;;;5032475;28;20229;-79
2022/10/14 14:59:41;;;;;;;6.63;4.33;;;;;;;;;;5031828;28;20223;-79
2022/10/14 15:02:18;;;;;;;5.27;4.30;;;;;;;;;;5032141;28;20174;-79
2022/10/14 15:04:44;;;;;;;6.40;4.07;;;;;;;;;;5032314;28;20166;-79
2022/10/14 15:07:21;;;;;;;5.30;4.30;;;;;;;;;;5016037;28;20183;-79
2022/10/14 15:09:49;;;;;;;5.67;4.27;;;;;;;;;;5032535;28;20725;-79
2022/10/14 15:12:20;;;;;;;5.37;4.27;;;;;;;;;;5032609;28;20182;-79
2022/10/14 15:14:47;;;;;;;7.77;4.10;;;;;;;;;;5032212;28;20197;-79
2022/10/14 15:17:33;;;;;;;5.60;4.60;;;;;;;;;;5032776;28;20209;-79
2022/10/14 15:20:05;;;;;;;7.53;4.50;;;;;;;;;;5032321;28;20210;-79
2022/10/14 15:22:35;;;;;;;6.70;4.80;;;;;;;;;;5033746;28;20178;-79
2022/10/14 15:25:09;;;;;;;6.57;4.73;;;;;;;;;;5036764;28;20232;-79
2022/10/14 15:27:34;;;;;;;5.43;4.03;;;;;;;;;;5037681;28;20170;-79
2022/10/14 15:30:16;;;;;;;6.90;4.20;;;;;;;;;;5036392;28;20200;-79
2022/10/14 15:32:42;;;;;;;6.53;4.07;;;;;;;;;;5036867;28;20212;-78
2022/10/14 15:35:11;;;;;;;5.13;4.37;;;;;;;;;;5020703;28;20183;-78
2022/10/14 15:37:37;;;;;;;5.13;4.30;;;;;;;;;;5036340;28;20182;-78
2022/10/14 15:40:04;;;;;;;5.10;4.57;;;;;;;;;;5020086;28;20240;-78
2022/10/14 15:42:30;;;;;;;5.73;4.23;;;;;;;;;;5037409;28;20185;-78
2022/10/14 15:44:56;;;;;;;5.60;4.00;;;;;;;;;;5018205;28;20175;-78
2022/10/14 15:47:23;;;;;;;4.63;4.17;;;;;;;;;;5019239;28;20185;-78
2022/10/14 15:49:49;;;;;;;5.80;4.90;;;;;;;;;;5021140;28;20218;-78
2022/10/14 15:52:16;;;;;;;7.40;4.90;;;;;;;;;;5018125;28;20224;-79
2022/10/14 15:54:44;;;;;;;6.53;4.40;;;;;;;;;;5032105;28;20199;-79
2022/10/14 15:57:11;;;;;;;6.33;4.70;;;;;;;;;;5033738;28;20237;-78
2022/10/14 15:59:37;;;;;;;6.33;4.70;;;;;;;;;;5033318;28;20620;-78
2022/10/14 16:02:27;;;;;;;5.67;4.97;;;;;;;;;;5033657;28;20262;-78
2022/10/14 16:04:53;;;;;;;5.97;5.17;;;;;;;;;;5037626;28;20176;-79
2022/10/14 16:07:19;;;;;;;6.30;5.47;;;;;;;;;;5021142;28;20246;-79
2022/10/14 16:09:46;;;;;;;7.30;5.30;;;;;;;;;;5020596;28;20199;-79
2022/10/14 16:12:12;;;;;;;5.67;4.90;;;;;;;;;;5020292;28;20182;-78
2022/10/14 16:14:38;;;;;;;5.77;5.10;;;;;;;;;;5037342;28;20206;-78
2022/10/14 16:17:04;;;;;;;6.93;5.40;;;;;;;;;;5020966;28;20185;-79
2022/10/14 16:19:30;;;;;;;7.57;4.77;;;;;;;;;;5036758;28;20220;-79
2022/10/14 16:21:56;;;;;;;6.80;5.73;;;;;;;;;;5020619;28;20661;-79
2022/10/14 16:24:26;;;;;;;7.10;5.20;;;;;;;;;;5020647;28;20183;-79
2022/10/14 16:26:52;;;;;;;7.23;5.13;;;;;;;;;;5036383;28;20228;-78
2022/10/14 16:29:19;;;;;;;7.50;4.97;;;;;;;;;;5035864;28;20206;-79
2022/10/14 16:31:48;;;;;;;5.63;4.90;;;;;;;;;;5035401;28;20178;-79
2022/10/14 16:34:14;;;;;;;7.47;5.03;;;;;;;;;;5021990;28;20199;-78
2022/10/14 16:36:40;;;;;;;6.23;5.20;;;;;;;;;;5033918;28;20170;-78
2022/10/14 16:39:06;;;;;;;6.23;5.17;;;;;;;;;;5020314;28;20194;-80
2022/10/14 16:41:32;;;;;;;5.47;4.90;;;;;;;;;;5018213;28;20208;-78
2022/10/14 16:43:58;;;;;;;5.63;4.47;;;;;;;;;;5019096;28;20186;-78
2022/10/14 16:47:14;;;;;;;5.77;4.97;;;;;;;;;;5037538;28;20202;-78
2022/10/14 16:49:10;;;;;;;5.90;4.90;;;;;;;;;;5020873;28;20210;-78
2022/10/14 16:51:36;;;;;;;5.50;4.67;;;;;;;;;;5016294;28;20198;-78
2022/10/14 16:54:02;;;;;;;5.87;4.30;;;;;;;;;;5016419;28;20579;-78
2022/10/14 16:59:13;;;;;;;4.33;3.93;;;;;;;;;;5016103;28;20210;-78
2022/10/14 17:01:39;;;;;;;5.20;3.90;;;;;;;;;;5014743;28;20174;-78
2022/10/14 17:04:05;;;;;;;4.20;3.80;;;;;;;;;;5015309;28;20668;-79
2022/10/14 17:06:31;;;;;;;4.00;3.60;;;;;;;;;;5015256;28;20306;-79
2022/10/14 17:08:57;;;;;;;4.73;3.63;;;;;;;;;;5014875;28;20566;-80
2022/10/14 17:11:26;;;;;;;3.77;3.00;;;;;;;;;;4998251;28;20184;-80
2022/10/14 17:13:53;;;;;;;3.73;3.20;;;;;;;;;;5014156;28;20210;-80
2022/10/14 17:16:19;;;;;;;3.60;2.40;;;;;;;;;;5014969;28;20183;-80
2022/10/14 17:18:45;;;;;;;2.93;2.57;;;;;;;;;;5014550;28;20233;-80
2022/10/14 17:21:12;;;;;;;2.93;2.40;;;;;;;;;;5014193;28;20222;-80
2022/10/14 17:23:42;;;;;;;2.57;2.03;;;;;;;;;;4998460;28;20245;-79
2022/10/14 17:26:18;;;;;;;2.03;1.70;;;;;;;;;;4998696;28;20182;-79
2022/10/14 17:28:45;;;;;;;1.80;1.70;;;;;;;;;;5014850;28;20241;-79
2022/10/14 17:31:12;;;;;;;1.93;1.80;;;;;;;;;;5014390;28;20179;-79
2022/10/14 17:33:38;;;;;;;1.77;1.60;;;;;;;;;;5014625;28;20291;-79
2022/10/14 17:36:05;;;;;;;2.07;1.70;;;;;;;;;;5014676;28;20642;-79
2022/10/14 17:38:32;;;;;;;1.80;1.70;;;;;;;;;;4997874;28;20203;-79
2022/10/14 17:41:08;;;;;;;1.73;1.63;;;;;;;;;;5014161;28;20206;-80
2022/10/14 17:43:35;;;;;;;2.13;1.80;;;;;;;;;;5014622;28;20232;-79
2022/10/14 17:46:05;;;;;;;1.80;1.70;;;;;;;;;;4999752;28;20190;-79
2022/10/14 17:48:32;;;;;;;2.10;1.53;;;;;;;;;;5030405;28;20198;-79
2022/10/14 17:50:57;;;;;;;1.97;1.77;;;;;;;;;;5034650;28;20182;-79
2022/10/14 17:53:24;;;;;;;2.57;1.60;;;;;;;;;;5034784;28;20301;-79
2022/10/14 17:55:50;;;;;;;1.97;1.77;;;;;;;;;;5018128;28;20189;-80
2022/10/14 17:58:16;;;;;;;2.90;1.87;;;;;;;;;;5034337;28;20194;-80
2022/10/14 18:00:42;;;;;;;2.37;1.80;;;;;;;;;;5035529;28;20189;-80
2022/10/14 18:03:09;;;;;;;2.70;2.10;;;;;;;;;;5016585;28;20457;-80
2022/10/14 18:05:36;;;;;;;2.03;1.93;;;;;;;;;;5018079;28;20178;-79
2022/10/14 18:08:03;;;;;;;2.80;2.00;;;;;;;;;;5035723;28;20169;-80
2022/10/14 18:10:29;;;;;;;2.37;2.17;;;;;;;;;;5033768;28;20612;-80
2022/10/14 18:12:56;;;;;;;2.30;2.10;;;;;;;;;;5017246;28;20196;-80
2022/10/14 18:15:25;;;;;;;2.90;2.40;;;;;;;;;;5033179;28;20202;-80
2022/10/14 18:17:52;;;;;;;2.93;2.10;;;;;;;;;;5017079;28;20649;-80
2022/10/14 18:20:18;;;;;;;3.17;2.20;;;;;;;;;;5016241;28;20201;-80
2022/10/14 18:22:44;;;;;;;2.40;2.20;;;;;;;;;;5015889;28;20582;-80
2022/10/14 18:25:09;;;;;;;3.17;2.27;;;;;;;;;;5015601;28;20182;-80
2022/10/14 18:27:35;;;;;;;2.70;2.30;;;;;;;;;;5016363;28;20183;-80
2022/10/14 18:30:01;;;;;;;2.43;2.23;;;;;;;;;;5016279;28;20225;-80
2022/10/14 18:32:27;;;;;;;2.23;2.03;;;;;;;;;;5016265;28;20277;-79
2022/10/14 18:34:54;;;;;;;2.13;1.93;;;;;;;;;;5032956;28;20202;-80
2022/10/14 18:37:20;;;;;;;2.53;2.33;;;;;;;;;;5016081;28;20258;-80
2022/10/14 18:39:45;;;;;;;2.50;2.30;;;;;;;;;;5016123;28;20344;-80
2022/10/14 18:42:11;;;;;;;2.60;2.40;;;;;;;;;;5016193;28;20659;-80
2022/10/14 18:44:37;;;;;;;3.63;2.60;;;;;;;;;;5015834;28;20182;-80
2022/10/14 18:47:03;;;;;;;2.70;2.50;;;;;;;;;;5016402;28;20528;-80
2022/10/14 18:49:29;;;;;;;3.30;2.83;;;;;;;;;;5015881;28;20209;-80
2022/10/14 18:51:55;;;;;;;2.97;2.67;;;;;;;;;;5015968;28;20178;-80
2022/10/14 18:54:23;;;;;;;2.47;2.27;;;;;;;;;;5015833;28;20206;-80
2022/10/14 18:56:49;;;;;;;2.87;2.30;;;;;;;;;;5032170;28;20261;-80
2022/10/14 18:59:17;;;;;;;3.33;2.47;;;;;;;;;;5032254;28;20290;-80
2022/10/14 19:01:44;;;;;;;2.40;2.20;;;;;;;;;;5032267;28;20178;-80
2022/10/14 19:04:14;;;;;;;2.50;2.30;;;;;;;;;;5031945;28;20217;-80
2022/10/14 19:06:43;;;;;;;2.93;2.53;;;;;;;;;;5033222;28;20182;-80
2022/10/14 19:09:11;;;;;;;2.97;2.40;;;;;;;;;;5031863;28;20661;-80
2022/10/14 19:11:37;;;;;;;2.70;2.50;;;;;;;;;;5015805;28;20189;-80
2022/10/14 19:14:04;;;;;;;3.93;2.60;;;;;;;;;;5032386;28;20563;-80
2022/10/14 19:16:37;;;;;;;3.77;2.77;;;;;;;;;;5031597;28;20789;-80
2022/10/14 19:19:03;;;;;;;3.60;3.17;;;;;;;;;;5054494;23;20256;-77
2022/10/14 19:21:29;;;;;;;4.33;3.20;;;;;;;;;;5030180;28;20277;-77
2022/10/14 19:23:59;;;;;;;3.30;3.00;;;;;;;;;;5022458;28;20601;-77
2022/10/14 19:26:27;;;;;;;4.80;3.03;;;;;;;;;;5014595;28;20182;-77
2022/10/14 19:28:53;;;;;;;3.30;2.83;;;;;;;;;;5030649;28;20202;-77
2022/10/14 19:31:20;;;;;;;3.53;2.90;;;;;;;;;;5031078;28;20269;-79
2022/10/14 19:33:46;;;;;;;3.10;2.80;;;;;;;;;;5031568;28;20206;-79
2022/10/14 19:36:13;;;;;;;3.77;2.90;;;;;;;;;;5015858;28;20187;-79
2022/10/14 19:38:43;;;;;;;4.53;2.57;;;;;;;;;;5035483;28;20717;-79
2022/10/14 19:41:09;;;;;;;3.00;2.70;;;;;;;;;;5035377;28;20170;-79
2022/10/14 19:43:35;;;;;;;3.00;2.80;;;;;;;;;;5019266;28;20600;-79
2022/10/14 19:46:05;;;;;;;3.40;3.10;;;;;;;;;;5035397;28;20207;-79
2022/10/14 19:48:31;;;;;;;4.07;3.10;;;;;;;;;;5035185;28;20478;-79
2022/10/14 19:50:59;;;;;;;3.63;3.27;;;;;;;;;;5018987;28;20244;-79
2022/10/14 19:53:25;;;;;;;3.80;3.40;;;;;;;;;;5034816;28;20198;-80
2022/10/14 19:55:51;;;;;;;4.50;3.63;;;;;;;;;;5035191;28;20171;-80
2022/10/14 19:58:17;;;;;;;3.67;3.37;;;;;;;;;;5035128;28;20648;-80
2022/10/14 20:00:43;;;;;;;5.43;4.10;;;;;;;;;;5034888;28;20197;-79
2022/10/14 20:03:09;;;;;;;5.50;4.40;;;;;;;;;;5022965;28;20186;-79
2022/10/14 20:05:35;;;;;;;5.73;4.67;;;;;;;;;;5014791;28;20264;-79
2022/10/14 20:08:01;;;;;;;4.93;4.40;;;;;;;;;;5018575;28;20209;-80
